sensor_id;sensor_type;location;lat;lon;timestamp;temperature;humidity
38973;DHT22;25333;50.762;4.470;2023-03-01T00:01:04;-1.20;99.90
38973;DHT22;25333;50.762;4.470;2023-03-01T00:03:31;-1.20;99.90
38973;DHT22;25333;50.762;4.470;2023-03-01T00:05:57;-1.10;99.90
38973;DHT22;25333;50.762;4.470;2023-03-01T00:08:23;-1.00;99.90
38973;DHT22;25333;50.762;4.470;2023-03-01T00:10:48;-1.00;99.90
38973;DHT22;25333;50.762;4.470;2023-03-01T00:13:14;-1.00;99.90
38973;DHT22;25333;50.762;4.470;2023-03-01T00:15:40;-1.10;99.90
38973;DHT22;25333;50.762;4.470;2023-03-01T00:18:07;-1.00;99.90
38973;DHT22;25333;50.762;4.470;2023-03-01T00:20:34;-1.00;99.90
38973;DHT22;25333;50.762;4.470;2023-03-01T00:22:59;-1.00;99.90
38973;DHT22;25333;50.762;4.470;2023-03-01T00:25:25;-1.00;99.90
38973;DHT22;25333;50.762;4.470;2023-03-01T00:27:51;-1.20;99.90
38973;DHT22;25333;50.762;4.470;2023-03-01T00:30:16;-1.10;99.90
38973;DHT22;25333;50.762;4.470;2023-03-01T00:32:42;-1.00;99.90
38973;DHT22;25333;50.762;4.470;2023-03-01T00:35:08;-1.10;99.90
38973;DHT22;25333;50.762;4.470;2023-03-01T00:37:33;-1.40;99.90
38973;DHT22;25333;50.762;4.470;2023-03-01T00:39:59;-1.30;99.90
38973;DHT22;25333;50.762;4.470;2023-03-01T00:42:24;-1.20;99.90
38973;DHT22;25333;50.762;4.470;2023-03-01T00:44:50;-1.10;99.90
38973;DHT22;25333;50.762;4.470;2023-03-01T00:47:15;-1.20;99.90
38973;DHT22;25333;50.762;4.470;2023-03-01T00:49:41;-1.50;99.90
38973;DHT22;25333;50.762;4.470;2023-03-01T00:52:07;-1.40;99.90
38973;DHT22;25333;50.762;4.470;2023-03-01T00:54:32;-1.40;99.90
38973;DHT22;25333;50.762;4.470;2023-03-01T00:56:58;-1.40;99.90
38973;DHT22;25333;50.762;4.470;2023-03-01T00:59:24;-1.30;99.90
38973;DHT22;25333;50.762;4.470;2023-03-01T01:01:49;-1.30;99.90
38973;DHT22;25333;50.762;4.470;2023-03-01T01:04:15;-1.30;99.90
38973;DHT22;25333;50.762;4.470;2023-03-01T01:06:45;-1.40;99.90
38973;DHT22;25333;50.762;4.470;2023-03-01T01:09:14;-1.60;99.90
38973;DHT22;25333;50.762;4.470;2023-03-01T01:11:44;-1.50;99.90
38973;DHT22;25333;50.762;4.470;2023-03-01T01:14:10;-1.50;99.90
38973;DHT22;25333;50.762;4.470;2023-03-01T01:16:36;-1.50;99.90
38973;DHT22;25333;50.762;4.470;2023-03-01T01:19:02;-1.40;99.90
38973;DHT22;25333;50.762;4.470;2023-03-01T01:21:29;-1.40;99.90
38973;DHT22;25333;50.762;4.470;2023-03-01T01:23:56;-1.50;99.90
38973;DHT22;25333;50.762;4.470;2023-03-01T01:26:27;-1.40;99.90
38973;DHT22;25333;50.762;4.470;2023-03-01T01:28:54;-1.40;99.90
38973;DHT22;25333;50.762;4.470;2023-03-01T01:31:20;-1.40;99.90
38973;DHT22;25333;50.762;4.470;2023-03-01T01:33:49;-1.40;99.90
38973;DHT22;25333;50.762;4.470;2023-03-01T01:36:14;-1.50;99.90
38973;DHT22;25333;50.762;4.470;2023-03-01T01:38:40;-1.50;99.90
38973;DHT22;25333;50.762;4.470;2023-03-01T01:41:08;-1.50;99.90
38973;DHT22;25333;50.762;4.470;2023-03-01T01:43:45;-1.50;99.90
38973;DHT22;25333;50.762;4.470;2023-03-01T01:46:30;-1.60;99.90
38973;DHT22;25333;50.762;4.470;2023-03-01T01:51:41;-1.50;99.90
38973;DHT22;25333;50.762;4.470;2023-03-01T01:54:23;-1.50;99.90
38973;DHT22;25333;50.762;4.470;2023-03-01T01:56:55;-1.50;99.90
38973;DHT22;25333;50.762;4.470;2023-03-01T01:59:24;-1.50;99.90
38973;DHT22;25333;50.762;4.470;2023-03-01T02:01:53;-1.50;99.90
38973;DHT22;25333;50.762;4.470;2023-03-01T02:04:20;-1.40;99.90
38973;DHT22;25333;50.762;4.470;2023-03-01T02:06:55;-1.60;99.90
38973;DHT22;25333;50.762;4.470;2023-03-01T02:09:23;-1.60;99.90
38973;DHT22;25333;50.762;4.470;2023-03-01T02:11:49;-1.60;99.90
38973;DHT22;25333;50.762;4.470;2023-03-01T02:14:16;-1.50;99.90
38973;DHT22;25333;50.762;4.470;2023-03-01T02:16:42;-1.60;99.90
38973;DHT22;25333;50.762;4.470;2023-03-01T02:19:14;-1.60;99.90
38973;DHT22;25333;50.762;4.470;2023-03-01T02:22:11;-1.60;99.90
38973;DHT22;25333;50.762;4.470;2023-03-01T02:25:00;-1.70;99.90
38973;DHT22;25333;50.762;4.470;2023-03-01T02:27:55;-1.70;99.90
38973;DHT22;25333;50.762;4.470;2023-03-01T02:30:18;-1.70;99.90
38973;DHT22;25333;50.762;4.470;2023-03-01T02:32:44;-1.70;99.90
38973;DHT22;25333;50.762;4.470;2023-03-01T02:35:13;-1.70;99.90
38973;DHT22;25333;50.762;4.470;2023-03-01T02:37:41;-1.80;99.90
38973;DHT22;25333;50.762;4.470;2023-03-01T02:40:13;-1.70;99.90
38973;DHT22;25333;50.762;4.470;2023-03-01T02:42:51;-1.80;99.90
38973;DHT22;25333;50.762;4.470;2023-03-01T02:45:19;-1.90;99.90
38973;DHT22;25333;50.762;4.470;2023-03-01T02:47:45;-1.80;99.90
38973;DHT22;25333;50.762;4.470;2023-03-01T02:50:43;-1.80;99.90
38973;DHT22;25333;50.762;4.470;2023-03-01T02:53:38;-1.80;99.90
38973;DHT22;25333;50.762;4.470;2023-03-01T02:56:04;-2.00;99.90
38973;DHT22;25333;50.762;4.470;2023-03-01T02:58:30;-2.00;99.90
38973;DHT22;25333;50.762;4.470;2023-03-01T03:00:56;-1.90;99.90
38973;DHT22;25333;50.762;4.470;2023-03-01T03:03:22;-1.90;99.90
38973;DHT22;25333;50.762;4.470;2023-03-01T03:05:48;-2.00;99.90
38973;DHT22;25333;50.762;4.470;2023-03-01T03:08:14;-2.00;99.90
38973;DHT22;25333;50.762;4.470;2023-03-01T03:10:49;-2.10;99.90
38973;DHT22;25333;50.762;4.470;2023-03-01T03:13:15;-2.10;99.90
38973;DHT22;25333;50.762;4.470;2023-03-01T03:15:41;-2.10;99.90
38973;DHT22;25333;50.762;4.470;2023-03-01T03:18:11;-2.10;99.90
38973;DHT22;25333;50.762;4.470;2023-03-01T03:20:38;-2.10;99.90
38973;DHT22;25333;50.762;4.470;2023-03-01T03:23:04;-2.00;99.90
38973;DHT22;25333;50.762;4.470;2023-03-01T03:25:30;-2.10;99.90
38973;DHT22;25333;50.762;4.470;2023-03-01T03:27:56;-2.20;99.90
38973;DHT22;25333;50.762;4.470;2023-03-01T03:30:30;-2.20;99.90
38973;DHT22;25333;50.762;4.470;2023-03-01T03:32:58;-2.10;99.90
38973;DHT22;25333;50.762;4.470;2023-03-01T03:35:26;-2.10;99.90
38973;DHT22;25333;50.762;4.470;2023-03-01T03:37:53;-2.20;99.90
38973;DHT22;25333;50.762;4.470;2023-03-01T03:40:30;-2.30;99.90
38973;DHT22;25333;50.762;4.470;2023-03-01T03:42:56;-2.30;99.90
38973;DHT22;25333;50.762;4.470;2023-03-01T03:45:21;-2.20;99.90
38973;DHT22;25333;50.762;4.470;2023-03-01T03:47:47;-2.20;99.90
38973;DHT22;25333;50.762;4.470;2023-03-01T03:50:14;-2.30;99.90
38973;DHT22;25333;50.762;4.470;2023-03-01T03:52:40;-2.30;99.90
38973;DHT22;25333;50.762;4.470;2023-03-01T03:55:08;-2.30;99.90
38973;DHT22;25333;50.762;4.470;2023-03-01T03:57:35;-2.40;99.90
38973;DHT22;25333;50.762;4.470;2023-03-01T04:00:01;-2.30;99.90
38973;DHT22;25333;50.762;4.470;2023-03-01T04:02:30;-2.30;99.90
38973;DHT22;25333;50.762;4.470;2023-03-01T04:04:55;-2.20;99.90
38973;DHT22;25333;50.762;4.470;2023-03-01T04:07:21;-2.20;99.90
38973;DHT22;25333;50.762;4.470;2023-03-01T04:09:47;-2.30;99.90
38973;DHT22;25333;50.762;4.470;2023-03-01T04:12:12;-2.30;99.90
38973;DHT22;25333;50.762;4.470;2023-03-01T04:14:38;-2.40;99.90
38973;DHT22;25333;50.762;4.470;2023-03-01T04:17:03;-2.40;99.90
38973;DHT22;25333;50.762;4.470;2023-03-01T04:19:31;-2.30;99.90
38973;DHT22;25333;50.762;4.470;2023-03-01T04:22:02;-2.40;99.90
38973;DHT22;25333;50.762;4.470;2023-03-01T04:24:33;-2.40;99.90
38973;DHT22;25333;50.762;4.470;2023-03-01T04:26:58;-2.40;99.90
38973;DHT22;25333;50.762;4.470;2023-03-01T04:29:24;-2.40;99.90
38973;DHT22;25333;50.762;4.470;2023-03-01T04:31:50;-2.50;99.90
38973;DHT22;25333;50.762;4.470;2023-03-01T04:34:15;-2.50;99.90
38973;DHT22;25333;50.762;4.470;2023-03-01T04:36:41;-2.50;99.90
38973;DHT22;25333;50.762;4.470;2023-03-01T04:39:06;-2.60;99.90
38973;DHT22;25333;50.762;4.470;2023-03-01T04:41:38;-2.60;99.90
38973;DHT22;25333;50.762;4.470;2023-03-01T04:44:05;-2.60;99.90
38973;DHT22;25333;50.762;4.470;2023-03-01T04:46:30;-2.50;99.90
38973;DHT22;25333;50.762;4.470;2023-03-01T04:48:56;-2.50;99.90
38973;DHT22;25333;50.762;4.470;2023-03-01T04:51:22;-2.50;99.90
38973;DHT22;25333;50.762;4.470;2023-03-01T04:53:47;-2.40;99.90
38973;DHT22;25333;50.762;4.470;2023-03-01T04:56:14;-2.40;99.90
38973;DHT22;25333;50.762;4.470;2023-03-01T04:58:39;-2.50;99.90
38973;DHT22;25333;50.762;4.470;2023-03-01T05:01:12;-2.50;99.90
38973;DHT22;25333;50.762;4.470;2023-03-01T05:03:49;-2.50;99.90
38973;DHT22;25333;50.762;4.470;2023-03-01T05:06:16;-2.60;99.90
38973;DHT22;25333;50.762;4.470;2023-03-01T05:08:43;-2.50;99.90
38973;DHT22;25333;50.762;4.470;2023-03-01T05:11:09;-2.50;99.90
38973;DHT22;25333;50.762;4.470;2023-03-01T05:13:36;-2.60;99.90
38973;DHT22;25333;50.762;4.470;2023-03-01T05:16:04;-2.60;99.90
38973;DHT22;25333;50.762;4.470;2023-03-01T05:18:31;-2.60;99.90
38973;DHT22;25333;50.762;4.470;2023-03-01T05:21:06;-2.60;99.90
38973;DHT22;25333;50.762;4.470;2023-03-01T05:23:33;-2.60;99.90
38973;DHT22;25333;50.762;4.470;2023-03-01T05:25:59;-2.60;99.90
38973;DHT22;25333;50.762;4.470;2023-03-01T05:28:26;-2.70;99.90
38973;DHT22;25333;50.762;4.470;2023-03-01T05:30:53;-2.70;99.90
38973;DHT22;25333;50.762;4.470;2023-03-01T05:33:19;-2.70;99.90
38973;DHT22;25333;50.762;4.470;2023-03-01T05:35:47;-2.80;99.90
38973;DHT22;25333;50.762;4.470;2023-03-01T05:38:14;-2.70;99.90
38973;DHT22;25333;50.762;4.470;2023-03-01T05:40:42;-2.70;99.90
38973;DHT22;25333;50.762;4.470;2023-03-01T05:43:09;-2.70;99.90
38973;DHT22;25333;50.762;4.470;2023-03-01T05:45:37;-2.70;99.90
38973;DHT22;25333;50.762;4.470;2023-03-01T05:48:03;-2.80;99.90
38973;DHT22;25333;50.762;4.470;2023-03-01T05:50:32;-2.80;99.90
38973;DHT22;25333;50.762;4.470;2023-03-01T05:53:02;-2.70;99.90
38973;DHT22;25333;50.762;4.470;2023-03-01T05:55:29;-2.70;99.90
38973;DHT22;25333;50.762;4.470;2023-03-01T05:57:58;-2.60;99.90
38973;DHT22;25333;50.762;4.470;2023-03-01T06:00:24;-2.70;99.90
38973;DHT22;25333;50.762;4.470;2023-03-01T06:02:49;-2.70;99.90
38973;DHT22;25333;50.762;4.470;2023-03-01T06:05:17;-2.80;99.90
38973;DHT22;25333;50.762;4.470;2023-03-01T06:07:43;-2.70;99.90
38973;DHT22;25333;50.762;4.470;2023-03-01T06:10:11;-2.80;99.90
38973;DHT22;25333;50.762;4.470;2023-03-01T06:12:38;-2.90;99.90
38973;DHT22;25333;50.762;4.470;2023-03-01T06:15:05;-2.90;99.90
38973;DHT22;25333;50.762;4.470;2023-03-01T06:17:41;-2.80;99.90
38973;DHT22;25333;50.762;4.470;2023-03-01T06:20:10;-2.90;99.90
38973;DHT22;25333;50.762;4.470;2023-03-01T06:22:37;-3.00;99.90
38973;DHT22;25333;50.762;4.470;2023-03-01T06:25:05;-3.00;99.90
38973;DHT22;25333;50.762;4.470;2023-03-01T06:27:31;-2.90;99.90
38973;DHT22;25333;50.762;4.470;2023-03-01T06:29:56;-2.90;99.90
38973;DHT22;25333;50.762;4.470;2023-03-01T06:32:22;-2.90;99.90
38973;DHT22;25333;50.762;4.470;2023-03-01T06:34:48;-2.90;99.90
38973;DHT22;25333;50.762;4.470;2023-03-01T06:37:13;-2.90;99.90
38973;DHT22;25333;50.762;4.470;2023-03-01T06:39:39;-2.90;99.90
38973;DHT22;25333;50.762;4.470;2023-03-01T06:42:09;-2.90;99.90
38973;DHT22;25333;50.762;4.470;2023-03-01T06:44:36;-2.90;99.90
38973;DHT22;25333;50.762;4.470;2023-03-01T06:47:04;-3.00;99.90
38973;DHT22;25333;50.762;4.470;2023-03-01T06:49:37;-2.90;99.90
38973;DHT22;25333;50.762;4.470;2023-03-01T06:52:03;-2.90;99.90
38973;DHT22;25333;50.762;4.470;2023-03-01T06:54:28;-3.00;99.90
38973;DHT22;25333;50.762;4.470;2023-03-01T06:56:54;-3.00;99.90
38973;DHT22;25333;50.762;4.470;2023-03-01T06:59:20;-3.00;99.90
38973;DHT22;25333;50.762;4.470;2023-03-01T07:01:46;-3.10;99.90
38973;DHT22;25333;50.762;4.470;2023-03-01T07:04:13;-3.00;99.90
38973;DHT22;25333;50.762;4.470;2023-03-01T07:06:39;-2.90;99.90
38973;DHT22;25333;50.762;4.470;2023-03-01T07:09:04;-2.90;99.90
38973;DHT22;25333;50.762;4.470;2023-03-01T07:11:30;-2.80;99.90
38973;DHT22;25333;50.762;4.470;2023-03-01T07:13:55;-2.70;99.90
38973;DHT22;25333;50.762;4.470;2023-03-01T07:16:21;-2.60;99.90
38973;DHT22;25333;50.762;4.470;2023-03-01T07:18:47;-2.50;99.90
38973;DHT22;25333;50.762;4.470;2023-03-01T07:21:14;-2.40;99.90
38973;DHT22;25333;50.762;4.470;2023-03-01T07:23:40;-2.20;99.90
38973;DHT22;25333;50.762;4.470;2023-03-01T07:26:06;-2.00;99.90
38973;DHT22;25333;50.762;4.470;2023-03-01T07:28:32;-1.90;99.90
38973;DHT22;25333;50.762;4.470;2023-03-01T07:31:05;-1.70;99.90
38973;DHT22;25333;50.762;4.470;2023-03-01T07:33:31;-1.60;99.90
38973;DHT22;25333;50.762;4.470;2023-03-01T07:35:58;-1.40;99.90
38973;DHT22;25333;50.762;4.470;2023-03-01T07:38:24;-1.30;99.90
38973;DHT22;25333;50.762;4.470;2023-03-01T07:40:50;-1.10;99.90
38973;DHT22;25333;50.762;4.470;2023-03-01T07:43:15;-0.90;99.90
38973;DHT22;25333;50.762;4.470;2023-03-01T07:45:41;-0.80;99.90
38973;DHT22;25333;50.762;4.470;2023-03-01T07:48:07;-0.60;99.90
38973;DHT22;25333;50.762;4.470;2023-03-01T07:50:32;-0.50;99.90
38973;DHT22;25333;50.762;4.470;2023-03-01T07:52:58;-0.30;99.90
38973;DHT22;25333;50.762;4.470;2023-03-01T07:55:23;-0.10;99.90
38973;DHT22;25333;50.762;4.470;2023-03-01T07:57:49;0.10;99.90
38973;DHT22;25333;50.762;4.470;2023-03-01T08:00:15;0.30;99.90
38973;DHT22;25333;50.762;4.470;2023-03-01T08:02:41;0.40;99.90
38973;DHT22;25333;50.762;4.470;2023-03-01T08:05:08;0.40;99.90
38973;DHT22;25333;50.762;4.470;2023-03-01T08:07:34;0.60;99.90
38973;DHT22;25333;50.762;4.470;2023-03-01T08:10:00;0.80;99.90
38973;DHT22;25333;50.762;4.470;2023-03-01T08:12:25;1.00;99.90
38973;DHT22;25333;50.762;4.470;2023-03-01T08:14:53;1.10;99.90
38973;DHT22;25333;50.762;4.470;2023-03-01T08:17:19;1.10;99.90
38973;DHT22;25333;50.762;4.470;2023-03-01T08:19:45;1.10;99.90
38973;DHT22;25333;50.762;4.470;2023-03-01T08:22:10;1.10;99.90
38973;DHT22;25333;50.762;4.470;2023-03-01T08:24:36;1.10;99.90
38973;DHT22;25333;50.762;4.470;2023-03-01T08:27:02;1.20;99.90
38973;DHT22;25333;50.762;4.470;2023-03-01T08:29:30;1.20;99.90
38973;DHT22;25333;50.762;4.470;2023-03-01T08:31:56;1.30;99.90
38973;DHT22;25333;50.762;4.470;2023-03-01T08:34:21;1.30;99.90
38973;DHT22;25333;50.762;4.470;2023-03-01T08:36:47;1.50;99.90
38973;DHT22;25333;50.762;4.470;2023-03-01T08:39:15;1.60;99.90
38973;DHT22;25333;50.762;4.470;2023-03-01T08:41:41;1.80;99.90
38973;DHT22;25333;50.762;4.470;2023-03-01T08:44:09;2.00;99.40
38973;DHT22;25333;50.762;4.470;2023-03-01T08:46:37;2.00;98.50
38973;DHT22;25333;50.762;4.470;2023-03-01T08:49:05;2.00;99.20
38973;DHT22;25333;50.762;4.470;2023-03-01T08:51:32;2.10;98.70
38973;DHT22;25333;50.762;4.470;2023-03-01T08:54:04;2.00;98.10
38973;DHT22;25333;50.762;4.470;2023-03-01T08:56:30;2.10;98.60
38973;DHT22;25333;50.762;4.470;2023-03-01T08:58:56;2.30;99.00
38973;DHT22;25333;50.762;4.470;2023-03-01T09:01:22;2.40;98.30
38973;DHT22;25333;50.762;4.470;2023-03-01T09:03:47;2.40;98.00
38973;DHT22;25333;50.762;4.470;2023-03-01T09:06:14;2.80;99.10
38973;DHT22;25333;50.762;4.470;2023-03-01T09:08:42;3.00;98.30
38973;DHT22;25333;50.762;4.470;2023-03-01T09:11:10;3.10;97.50
38973;DHT22;25333;50.762;4.470;2023-03-01T09:13:36;3.20;97.50
38973;DHT22;25333;50.762;4.470;2023-03-01T09:16:04;3.30;96.70
38973;DHT22;25333;50.762;4.470;2023-03-01T09:18:31;3.40;97.00
38973;DHT22;25333;50.762;4.470;2023-03-01T09:21:06;3.60;96.80
38973;DHT22;25333;50.762;4.470;2023-03-01T09:23:40;3.70;97.00
38973;DHT22;25333;50.762;4.470;2023-03-01T09:26:14;3.90;96.80
38973;DHT22;25333;50.762;4.470;2023-03-01T09:28:42;4.10;95.60
38973;DHT22;25333;50.762;4.470;2023-03-01T09:31:08;4.20;95.40
38973;DHT22;25333;50.762;4.470;2023-03-01T09:33:34;4.30;95.10
38973;DHT22;25333;50.762;4.470;2023-03-01T09:36:06;4.30;95.00
38973;DHT22;25333;50.762;4.470;2023-03-01T09:38:32;4.20;94.70
38973;DHT22;25333;50.762;4.470;2023-03-01T09:40:59;4.30;94.20
38973;DHT22;25333;50.762;4.470;2023-03-01T09:43:31;4.40;94.20
38973;DHT22;25333;50.762;4.470;2023-03-01T09:46:04;4.20;94.00
38973;DHT22;25333;50.762;4.470;2023-03-01T09:48:41;4.30;94.20
38973;DHT22;25333;50.762;4.470;2023-03-01T09:51:14;4.30;94.00
38973;DHT22;25333;50.762;4.470;2023-03-01T09:53:40;4.70;94.50
38973;DHT22;25333;50.762;4.470;2023-03-01T09:56:19;4.90;94.10
38973;DHT22;25333;50.762;4.470;2023-03-01T09:59:17;5.00;93.40
38973;DHT22;25333;50.762;4.470;2023-03-01T10:10:22;5.20;92.10
38973;DHT22;25333;50.762;4.470;2023-03-01T10:12:49;5.20;92.80
38973;DHT22;25333;50.762;4.470;2023-03-01T10:15:34;5.20;93.60
38973;DHT22;25333;50.762;4.470;2023-03-01T10:18:14;5.40;92.20
38973;DHT22;25333;50.762;4.470;2023-03-01T10:21:05;5.40;92.10
38973;DHT22;25333;50.762;4.470;2023-03-01T10:23:34;5.60;92.90
38973;DHT22;25333;50.762;4.470;2023-03-01T10:31:48;6.30;91.60
38973;DHT22;25333;50.762;4.470;2023-03-01T10:34:30;6.30;91.80
38973;DHT22;25333;50.762;4.470;2023-03-01T10:36:59;6.30;90.50
38973;DHT22;25333;50.762;4.470;2023-03-01T10:39:26;5.90;90.20
38973;DHT22;25333;50.762;4.470;2023-03-01T10:42:04;5.60;90.60
38973;DHT22;25333;50.762;4.470;2023-03-01T10:47:02;5.80;90.10
38973;DHT22;25333;50.762;4.470;2023-03-01T10:49:27;5.90;90.70
38973;DHT22;25333;50.762;4.470;2023-03-01T10:51:53;6.10;90.10
38973;DHT22;25333;50.762;4.470;2023-03-01T10:54:28;5.90;90.10
38973;DHT22;25333;50.762;4.470;2023-03-01T10:56:59;5.80;89.60
38973;DHT22;25333;50.762;4.470;2023-03-01T10:59:37;5.70;89.90
38973;DHT22;25333;50.762;4.470;2023-03-01T11:07:49;6.60;91.00
38973;DHT22;25333;50.762;4.470;2023-03-01T11:10:41;6.80;90.10
38973;DHT22;25333;50.762;4.470;2023-03-01T11:13:16;7.10;87.90
38973;DHT22;25333;50.762;4.470;2023-03-01T11:15:43;7.10;87.30
38973;DHT22;25333;50.762;4.470;2023-03-01T11:18:23;7.00;86.70
38973;DHT22;25333;50.762;4.470;2023-03-01T11:20:51;7.10;87.40
38973;DHT22;25333;50.762;4.470;2023-03-01T11:23:18;7.20;86.10
38973;DHT22;25333;50.762;4.470;2023-03-01T11:26:07;7.20;84.80
38973;DHT22;25333;50.762;4.470;2023-03-01T11:28:35;7.10;87.50
38973;DHT22;25333;50.762;4.470;2023-03-01T11:31:06;7.00;85.80
38973;DHT22;25333;50.762;4.470;2023-03-01T11:38:46;7.00;87.20
38973;DHT22;25333;50.762;4.470;2023-03-01T11:41:18;7.00;85.20
38973;DHT22;25333;50.762;4.470;2023-03-01T11:44:08;7.30;85.10
38973;DHT22;25333;50.762;4.470;2023-03-01T12:02:49;7.20;84.40
38973;DHT22;25333;50.762;4.470;2023-03-01T12:16:23;7.50;82.80
38973;DHT22;25333;50.762;4.470;2023-03-01T12:19:20;7.30;82.30
38973;DHT22;25333;50.762;4.470;2023-03-01T12:22:28;7.00;83.80
38973;DHT22;25333;50.762;4.470;2023-03-01T12:25:16;7.30;83.50
38973;DHT22;25333;50.762;4.470;2023-03-01T12:33:07;7.10;83.10
38973;DHT22;25333;50.762;4.470;2023-03-01T12:36:01;7.20;81.50
38973;DHT22;25333;50.762;4.470;2023-03-01T12:38:37;7.30;83.80
38973;DHT22;25333;50.762;4.470;2023-03-01T12:41:33;7.40;82.10
38973;DHT22;25333;50.762;4.470;2023-03-01T12:44:23;7.30;82.70
38973;DHT22;25333;50.762;4.470;2023-03-01T12:49:49;7.00;82.80
38973;DHT22;25333;50.762;4.470;2023-03-01T12:55:08;7.20;83.30
38973;DHT22;25333;50.762;4.470;2023-03-01T12:58:00;6.90;83.50
38973;DHT22;25333;50.762;4.470;2023-03-01T13:03:59;6.80;83.00
38973;DHT22;25333;50.762;4.470;2023-03-01T13:06:55;6.70;81.90
38973;DHT22;25333;50.762;4.470;2023-03-01T13:12:00;6.60;83.50
38973;DHT22;25333;50.762;4.470;2023-03-01T13:16:55;6.70;84.00
38973;DHT22;25333;50.762;4.470;2023-03-01T13:19:25;6.70;83.90
38973;DHT22;25333;50.762;4.470;2023-03-01T13:21:53;6.70;82.50
38973;DHT22;25333;50.762;4.470;2023-03-01T13:29:51;6.30;82.40
38973;DHT22;25333;50.762;4.470;2023-03-01T13:32:33;6.30;82.40
38973;DHT22;25333;50.762;4.470;2023-03-01T13:35:08;6.30;83.10
38973;DHT22;25333;50.762;4.470;2023-03-01T13:37:48;6.30;82.70
38973;DHT22;25333;50.762;4.470;2023-03-01T13:42:48;6.20;82.60
38973;DHT22;25333;50.762;4.470;2023-03-01T13:47:55;6.30;82.90
38973;DHT22;25333;50.762;4.470;2023-03-01T13:50:27;6.40;82.30
38973;DHT22;25333;50.762;4.470;2023-03-01T13:52:56;6.30;82.70
38973;DHT22;25333;50.762;4.470;2023-03-01T13:55:42;6.50;81.50
38973;DHT22;25333;50.762;4.470;2023-03-01T13:58:26;6.50;81.10
38973;DHT22;25333;50.762;4.470;2023-03-01T14:01:03;6.50;81.50
38973;DHT22;25333;50.762;4.470;2023-03-01T14:03:31;6.40;80.70
38973;DHT22;25333;50.762;4.470;2023-03-01T14:06:14;6.30;82.20
38973;DHT22;25333;50.762;4.470;2023-03-01T14:08:41;6.50;82.80
38973;DHT22;25333;50.762;4.470;2023-03-01T14:19:31;6.80;81.60
38973;DHT22;25333;50.762;4.470;2023-03-01T14:24:43;6.70;81.80
38973;DHT22;25333;50.762;4.470;2023-03-01T14:27:13;6.70;81.50
38973;DHT22;25333;50.762;4.470;2023-03-01T14:29:40;6.70;82.20
38973;DHT22;25333;50.762;4.470;2023-03-01T14:32:20;6.60;81.90
38973;DHT22;25333;50.762;4.470;2023-03-01T14:34:48;6.60;82.70
38973;DHT22;25333;50.762;4.470;2023-03-01T14:39:45;6.60;83.30
38973;DHT22;25333;50.762;4.470;2023-03-01T14:42:13;6.60;82.80
38973;DHT22;25333;50.762;4.470;2023-03-01T14:44:45;6.60;82.90
38973;DHT22;25333;50.762;4.470;2023-03-01T14:47:27;6.40;82.70
38973;DHT22;25333;50.762;4.470;2023-03-01T14:52:59;6.40;82.30
38973;DHT22;25333;50.762;4.470;2023-03-01T14:55:26;6.50;83.30
38973;DHT22;25333;50.762;4.470;2023-03-01T14:57:54;6.40;82.90
38973;DHT22;25333;50.762;4.470;2023-03-01T15:00:25;6.40;83.70
38973;DHT22;25333;50.762;4.470;2023-03-01T15:02:53;6.40;82.40
38973;DHT22;25333;50.762;4.470;2023-03-01T15:05:29;6.50;83.60
38973;DHT22;25333;50.762;4.470;2023-03-01T15:07:57;6.60;82.70
38973;DHT22;25333;50.762;4.470;2023-03-01T15:10:26;6.70;82.50
38973;DHT22;25333;50.762;4.470;2023-03-01T15:12:52;6.80;83.20
38973;DHT22;25333;50.762;4.470;2023-03-01T15:15:36;6.80;82.70
38973;DHT22;25333;50.762;4.470;2023-03-01T15:18:18;6.80;82.10
38973;DHT22;25333;50.762;4.470;2023-03-01T15:20:45;6.80;82.40
38973;DHT22;25333;50.762;4.470;2023-03-01T15:23:29;6.60;81.60
38973;DHT22;25333;50.762;4.470;2023-03-01T15:25:56;6.50;81.80
38973;DHT22;25333;50.762;4.470;2023-03-01T15:28:28;6.40;82.50
38973;DHT22;25333;50.762;4.470;2023-03-01T15:31:19;6.30;81.70
38973;DHT22;25333;50.762;4.470;2023-03-01T15:33:43;6.30;82.60
38973;DHT22;25333;50.762;4.470;2023-03-01T15:36:33;6.30;82.60
38973;DHT22;25333;50.762;4.470;2023-03-01T15:38:59;6.20;82.90
38973;DHT22;25333;50.762;4.470;2023-03-01T15:41:29;6.20;82.30
38973;DHT22;25333;50.762;4.470;2023-03-01T15:44:23;6.20;82.40
38973;DHT22;25333;50.762;4.470;2023-03-01T15:46:50;6.30;83.00
38973;DHT22;25333;50.762;4.470;2023-03-01T15:52:03;6.20;82.90
38973;DHT22;25333;50.762;4.470;2023-03-01T15:54:29;6.20;82.50
38973;DHT22;25333;50.762;4.470;2023-03-01T15:56:55;6.30;82.90
38973;DHT22;25333;50.762;4.470;2023-03-01T15:59:21;6.30;81.20
38973;DHT22;25333;50.762;4.470;2023-03-01T16:01:48;6.40;81.50
38973;DHT22;25333;50.762;4.470;2023-03-01T16:04:16;6.40;81.80
38973;DHT22;25333;50.762;4.470;2023-03-01T16:06:50;6.30;81.70
38973;DHT22;25333;50.762;4.470;2023-03-01T16:09:20;6.30;80.70
38973;DHT22;25333;50.762;4.470;2023-03-01T16:11:46;6.20;81.30
38973;DHT22;25333;50.762;4.470;2023-03-01T16:14:13;6.10;81.30
38973;DHT22;25333;50.762;4.470;2023-03-01T16:16:40;6.10;82.30
38973;DHT22;25333;50.762;4.470;2023-03-01T16:19:05;6.10;82.00
38973;DHT22;25333;50.762;4.470;2023-03-01T16:21:31;6.10;82.30
38973;DHT22;25333;50.762;4.470;2023-03-01T16:23:56;6.10;82.00
38973;DHT22;25333;50.762;4.470;2023-03-01T16:26:22;6.10;82.20
38973;DHT22;25333;50.762;4.470;2023-03-01T16:28:48;6.10;82.40
38973;DHT22;25333;50.762;4.470;2023-03-01T16:31:17;6.00;82.80
38973;DHT22;25333;50.762;4.470;2023-03-01T16:33:43;5.90;82.30
38973;DHT22;25333;50.762;4.470;2023-03-01T16:36:16;5.80;82.90
38973;DHT22;25333;50.762;4.470;2023-03-01T16:38:43;5.90;83.10
38973;DHT22;25333;50.762;4.470;2023-03-01T16:41:13;5.90;83.40
38973;DHT22;25333;50.762;4.470;2023-03-01T16:43:40;5.90;83.80
38973;DHT22;25333;50.762;4.470;2023-03-01T16:46:13;5.90;83.70
38973;DHT22;25333;50.762;4.470;2023-03-01T16:48:39;5.80;84.30
38973;DHT22;25333;50.762;4.470;2023-03-01T16:51:06;5.80;84.60
38973;DHT22;25333;50.762;4.470;2023-03-01T16:53:33;5.70;84.20
38973;DHT22;25333;50.762;4.470;2023-03-01T16:55:59;5.70;84.30
38973;DHT22;25333;50.762;4.470;2023-03-01T16:58:25;5.70;84.50
38973;DHT22;25333;50.762;4.470;2023-03-01T17:00:54;5.60;84.00
38973;DHT22;25333;50.762;4.470;2023-03-01T17:03:22;5.60;85.00
38973;DHT22;25333;50.762;4.470;2023-03-01T17:05:48;5.60;84.60
38973;DHT22;25333;50.762;4.470;2023-03-01T17:08:14;5.60;84.50
38973;DHT22;25333;50.762;4.470;2023-03-01T17:10:40;5.50;85.40
38973;DHT22;25333;50.762;4.470;2023-03-01T17:13:08;5.60;85.00
38973;DHT22;25333;50.762;4.470;2023-03-01T17:15:34;5.50;85.00
38973;DHT22;25333;50.762;4.470;2023-03-01T17:18:00;5.40;85.20
38973;DHT22;25333;50.762;4.470;2023-03-01T17:20:27;5.40;85.80
38973;DHT22;25333;50.762;4.470;2023-03-01T17:22:52;5.20;85.80
38973;DHT22;25333;50.762;4.470;2023-03-01T17:25:18;5.20;86.00
38973;DHT22;25333;50.762;4.470;2023-03-01T17:27:44;5.10;86.10
38973;DHT22;25333;50.762;4.470;2023-03-01T17:30:11;5.10;86.50
38973;DHT22;25333;50.762;4.470;2023-03-01T17:32:38;5.10;87.00
38973;DHT22;25333;50.762;4.470;2023-03-01T17:35:05;5.00;86.80
38973;DHT22;25333;50.762;4.470;2023-03-01T17:37:31;5.00;86.60
38973;DHT22;25333;50.762;4.470;2023-03-01T17:39:56;4.80;87.00